This is the latest recevied weather packets stored in our database for station/object KD4KKF. If no packets are shown the sender has not sent any weather packets the latest 1 day(s).
| Time | Temp. | Humidity | Pressure | Rain* | Wind** | Luminosity | Snow |
|---|---|---|---|---|---|---|---|
| 1778104608 | 21.67° C | 99% | 1010 hPa | 0 mm | - | 75 W/m² | - |
| 1778104303 | 21.67° C | 99% | 1010.1 hPa | 0 mm | - | 61 W/m² | - |
| 1778103093 | 21.67° C | 99% | 1009.7 hPa | 6.1 mm | - | 111 W/m² | - |
| 1778102485 | 21.67° C | 99% | 1010 hPa | 32.51 mm | - | 72 W/m² | - |
| 1778102181 | 21.67° C | 99% | 1009.8 hPa | 42.67 mm | - | 86 W/m² | - |
| 1778101878 | 22.22° C | 99% | 1009.9 hPa | 28.7 mm | - | 16 W/m² | - |
| 1778101575 | 22.78° C | 98% | 1009.4 hPa | 6.1 mm | - | 22 W/m² | - |
| 1778101271 | 23.33° C | 96% | 1009.3 hPa | 1.78 mm | - | 16 W/m² | - |
| 1778096421 | 26.11° C | 85% | 1010.1 hPa | 0 mm | - | 280 W/m² | - |
| 1778095512 | 26.67° C | 83% | 1010.5 hPa | 0 mm | - | 319 W/m² | - |
| 1778095208 | 26.67° C | 83% | 1010.7 hPa | 0 mm | - | 653 W/m² | - |
| 1778094905 | 26.11° C | 84% | 1010.5 hPa | 0 mm | - | 643 W/m² | - |
| 1778093692 | 25° C | 89% | 1011.2 hPa | 0 mm | - | 206 W/m² | - |
| 1778093086 | 25° C | 88% | 1011.1 hPa | 0 mm | - | 125 W/m² | - |
| 1778091268 | 25° C | 87% | 1011.4 hPa | 0 mm | - | 129 W/m² | - |
| 1778090054 | 26.11° C | 85% | 1011.3 hPa | 0 mm | - | 409 W/m² | - |
| 1778087024 | 23.33° C | 91% | 1011.9 hPa | 0 mm | - | 143 W/m² | - |
| 1778086421 | 23.89° C | 90% | 1012 hPa | 0 mm | - | 83 W/m² | - |
| 1778086117 | 23.89° C | 90% | 1012 hPa | 0 mm | - | 178 W/m² | - |
| 1778084896 | 23.89° C | 90% | 1011.6 hPa | 0 mm | - | 110 W/m² | - |
| 1778084594 | 23.89° C | 89% | 1011.5 hPa | 0 mm | - | 255 W/m² | - |
| 1778083988 | 23.33° C | 90% | 1011.6 hPa | 0 mm | - | 276 W/m² | - |
| 1778083076 | 23.33° C | 90% | 1012 hPa | 0 mm | - | 214 W/m² | - |
| 1778081644 | 23.33° C | 89% | 1011.8 hPa | 0 mm | - | 226 W/m² | - |
| 1778081341 | 23.33° C | 89% | 1011.9 hPa | 0 mm | - | 314 W/m² | - |
* Rain latest hour (hover to see other rain measurements)
** Current wind speed in m/s (hover to see current wind gust speed)